Time;durP1;ratioP1;P1;durP2;ratioP2;P2;SDS_P1;SDS_P2;PMS_P1;PMS_P2;Temp;Humidity;BMP_temperature;BMP_pressure;BME280_temperature;BME280_humidity;BME280_pressure;Samples;Min_cycle;Max_cycle;Signal;HPM_P1;HPM_P2
2021/07/27 00:01:44;;;;;;;15.18;6.75;;;;;;;20.05;52.98;100382.34;5091753;28;20451;-49
2021/07/27 00:04:10;;;;;;;16.05;6.68;;;;;;;20.01;52.96;100371.97;5091927;28;20391;-49
2021/07/27 00:06:35;;;;;;;16.40;7.15;;;;;;;19.98;53.09;100372.31;5091437;28;20460;-47
2021/07/27 00:09:00;;;;;;;11.88;6.85;;;;;;;19.94;53.41;100371.84;5091472;28;20460;-47
2021/07/27 00:11:26;;;;;;;10.98;6.93;;;;;;;19.93;53.39;100376.41;5091140;28;20118;-51
2021/07/27 00:13:51;;;;;;;16.52;7.63;;;;;;;19.90;52.98;100376.72;5091293;28;20390;-49
2021/07/27 00:16:17;;;;;;;12.38;6.65;;;;;;;19.85;52.95;100370.09;5091168;28;20032;-47
2021/07/27 00:18:42;;;;;;;16.27;8.07;;;;;;;19.86;53.20;100371.78;5090531;28;20031;-47
2021/07/27 00:21:08;;;;;;;18.17;9.25;;;;;;;19.83;53.14;100364.84;5091764;28;20368;-48
2021/07/27 00:23:38;;;;;;;18.05;8.90;;;;;;;19.88;52.92;100377.91;5090278;28;20060;-50
2021/07/27 00:26:11;;;;;;;16.30;9.90;;;;;;;19.90;53.37;100381.31;5091093;28;20498;-54
2021/07/27 00:28:37;;;;;;;22.40;11.57;;;;;;;19.79;53.59;100368.94;5091366;28;20059;-50
2021/07/27 00:31:02;;;;;;;18.90;11.25;;;;;;;19.76;53.71;100366.53;5091737;28;20224;-49
2021/07/27 00:33:28;;;;;;;24.50;13.38;;;;;;;19.78;53.60;100380.81;5091234;28;20047;-51
2021/07/27 00:35:53;;;;;;;17.52;10.93;;;;;;;19.74;53.71;100374.88;5090769;28;20036;-47
2021/07/27 00:38:21;;;;;;;19.67;11.18;;;;;;;19.69;53.68;100371.81;5091384;28;20075;-50
2021/07/27 00:40:47;;;;;;;26.33;14.23;;;;;;;19.70;54.28;100380.81;5088260;28;20032;-49
2021/07/27 00:43:14;;;;;;;24.70;15.45;;;;;;;19.67;53.99;100381.16;5084961;28;20085;-49
2021/07/27 00:45:40;;;;;;;37.92;18.23;;;;;;;19.63;54.29;100375.19;5090637;28;20039;-51
2021/07/27 00:48:06;;;;;;;28.67;17.85;;;;;;;19.57;54.49;100374.03;5090905;28;20032;-49
2021/07/27 00:50:31;;;;;;;31.10;17.75;;;;;;;19.54;54.13;100377.09;5091313;28;20024;-48
2021/07/27 00:53:02;;;;;;;34.72;21.02;;;;;;;19.52;54.32;100376.38;5091170;28;20035;-47
2021/07/27 00:55:28;;;;;;;36.28;20.00;;;;;;;19.52;54.63;100384.53;5090205;28;20028;-50
2021/07/27 00:57:54;;;;;;;40.40;21.63;;;;;;;19.46;54.90;100368.91;5090813;28;20067;-50
2021/07/27 01:00:26;;;;;;;34.47;20.15;;;;;;;19.46;54.76;100377.06;5091460;28;20123;-49
2021/07/27 01:02:52;;;;;;;36.60;19.55;;;;;;;19.40;55.15;100372.31;5091054;28;20165;-47
2021/07/27 01:05:18;;;;;;;39.97;19.40;;;;;;;19.39;55.17;100367.91;5090970;28;20035;-48
2021/07/27 01:07:44;;;;;;;29.90;18.40;;;;;;;19.35;55.27;100367.38;5093758;28;20035;-49
2021/07/27 01:10:13;;;;;;;32.28;19.30;;;;;;;19.36;55.24;100377.22;5094753;28;20024;-48
2021/07/27 01:12:39;;;;;;;29.52;17.77;;;;;;;19.34;55.72;100374.69;5094712;28;20028;-50
2021/07/27 01:15:05;;;;;;;28.83;17.73;;;;;;;19.29;55.85;100363.50;5094504;28;20493;-47
2021/07/27 01:17:31;;;;;;;30.25;17.45;;;;;;;19.28;55.59;100359.06;5094739;28;20106;-50
2021/07/27 01:20:02;;;;;;;24.05;15.10;;;;;;;19.28;55.73;100372.63;5093544;28;20039;-50
2021/07/27 01:44:06;;;;;;;17.00;10.70;;;;;;;19.15;56.81;100361.44;5093798;28;20028;-48
2021/07/27 01:46:38;;;;;;;21.92;11.05;;;;;;;19.23;56.46;100364.16;5094117;28;20168;-50
2021/07/27 01:49:05;;;;;;;20.55;10.93;;;;;;;19.18;57.22;100371.94;5094635;28;20035;-48
2021/07/27 01:51:41;;;;;;;22.63;11.27;;;;;;;19.19;57.33;100368.22;5093760;28;20036;-47
2021/07/27 01:54:08;;;;;;;20.38;10.32;;;;;;;19.20;56.82;100362.63;5093857;28;20036;-50
2021/07/27 01:56:34;;;;;;;19.08;10.90;;;;;;;19.21;57.20;100360.75;5094392;28;20156;-47
2021/07/27 01:59:00;;;;;;;20.05;9.57;;;;;;;19.24;57.16;100360.41;5093905;28;20074;-55
2021/07/27 02:01:27;;;;;;;21.33;10.15;;;;;;;19.27;57.14;100368.22;5093952;28;20028;-48
2021/07/27 02:03:55;;;;;;;25.83;9.75;;;;;;;19.32;57.08;100373.16;5093560;28;20028;-49
2021/07/27 02:06:21;;;;;;;18.23;8.98;;;;;;;19.28;57.62;100364.50;5094365;28;20107;-49
2021/07/27 02:08:46;;;;;;;20.08;9.30;;;;;;;19.34;57.45;100366.56;5094055;28;20106;-52
2021/07/27 02:11:18;;;;;;;19.38;8.57;;;;;;;19.39;57.19;100374.16;5093269;28;20039;-51
2021/07/27 02:13:46;;;;;;;19.67;8.82;;;;;;;19.39;57.32;100370.63;5093680;28;20035;-51
2021/07/27 02:16:12;;;;;;;26.75;9.32;;;;;;;19.43;57.01;100371.97;5093829;28;20034;-50
2021/07/27 02:18:37;;;;;;;16.98;8.90;;;;;;;19.45;57.38;100369.94;5091232;28;20031;-52
2021/07/27 02:21:03;;;;;;;19.70;8.93;;;;;;;19.50;57.20;100367.56;5093442;28;20032;-47
2021/07/27 02:23:28;;;;;;;20.67;8.65;;;;;;;19.56;57.21;100375.06;5093586;28;20028;-52
2021/07/27 02:25:54;;;;;;;22.73;9.00;;;;;;;19.61;57.33;100361.81;5093448;28;20036;-52
2021/07/27 02:28:19;;;;;;;18.77;8.60;;;;;;;19.76;57.14;100369.25;5094005;28;20032;-52
2021/07/27 02:30:52;;;;;;;23.05;8.98;;;;;;;19.84;56.78;100355.69;5093217;28;20028;-51
2021/07/27 02:33:19;;;;;;;28.02;9.35;;;;;;;20.05;56.49;100371.47;5093172;28;20055;-49
2021/07/27 02:35:44;;;;;;;24.65;8.80;;;;;;;20.16;56.49;100355.81;5093416;28;20040;-53
2021/07/27 02:38:11;;;;;;;25.00;9.00;;;;;;;20.29;55.92;100358.84;5093114;28;20085;-49
2021/07/27 02:40:37;;;;;;;26.77;9.02;;;;;;;20.40;55.72;100368.47;5092850;28;20085;-51
2021/07/27 02:43:04;;;;;;;32.67;9.10;;;;;;;20.45;56.13;100367.97;5092915;28;20115;-48
2021/07/27 02:45:30;;;;;;;30.02;8.68;;;;;;;20.49;55.76;100372.03;5093508;28;20032;-51
2021/07/27 02:47:56;;;;;;;31.77;9.20;;;;;;;20.51;55.92;100367.25;5093057;28;20130;-48
2021/07/27 02:50:21;;;;;;;26.83;8.73;;;;;;;20.57;55.92;100368.44;5093143;28;20024;-49
2021/07/27 02:52:48;;;;;;;29.98;8.88;;;;;;;20.61;55.70;100369.78;5092597;28;20031;-46
2021/07/27 02:55:13;;;;;;;29.20;9.25;;;;;;;20.68;55.53;100368.03;5093012;28;20038;-51
2021/07/27 02:57:39;;;;;;;24.88;8.98;;;;;;;20.73;55.44;100365.63;5092824;28;20024;-49
2021/07/27 03:00:09;;;;;;;32.08;9.55;;;;;;;20.82;55.40;100373.78;5092728;28;20058;-50
2021/07/27 03:02:39;;;;;;;29.17;9.10;;;;;;;20.78;55.47;100346.91;5092775;28;20475;-49
2021/07/27 03:05:06;;;;;;;34.88;9.60;;;;;;;20.75;55.31;100340.97;5092461;28;20024;-51
2021/07/27 03:07:37;;;;;;;29.92;9.75;;;;;;;20.85;55.41;100340.78;5092548;28;20464;-54
2021/07/27 03:12:57;;;;;;;40.17;9.88;;;;;;;21.30;54.91;100377.25;5091972;28;20065;-46
2021/07/27 03:15:25;;;;;;;35.80;10.10;;;;;;;21.27;54.58;100374.88;5092590;28;20040;-49
2021/07/27 03:17:57;;;;;;;25.17;9.00;;;;;;;21.28;54.65;100349.34;5092180;28;20387;-52
2021/07/27 03:20:24;;;;;;;28.85;9.13;;;;;;;21.25;54.58;100336.09;5093081;28;20032;-49
2021/07/27 03:22:51;;;;;;;25.50;8.98;;;;;;;21.59;53.63;100374.81;5092013;28;20028;-47
2021/07/27 03:25:18;;;;;;;23.20;8.68;;;;;;;21.69;54.22;100367.25;5092025;28;20470;-47
2021/07/27 03:27:45;;;;;;;28.42;9.57;;;;;;;21.84;53.36;100367.28;5092157;28;20028;-53
2021/07/27 03:30:12;;;;;;;30.50;9.13;;;;;;;22.03;52.05;100368.63;5091867;28;20020;-48
2021/07/27 03:32:38;;;;;;;26.50;8.95;;;;;;;22.33;52.19;100354.19;5091717;28;20107;-47
2021/07/27 03:35:04;;;;;;;26.73;9.60;;;;;;;22.87;49.75;100363.06;5092170;28;20128;-53
2021/07/27 03:37:32;;;;;;;24.92;9.38;;;;;;;23.48;48.37;100338.09;5092003;28;20486;-51
2021/07/27 03:39:58;;;;;;;22.80;9.23;;;;;;;24.50;45.51;100343.25;5091603;28;20481;-53
2021/07/27 03:42:24;;;;;;;23.35;8.55;;;;;;;25.43;43.37;100351.13;5091372;28;20035;-52
2021/07/27 03:44:57;;;;;;;28.05;9.50;;;;;;;26.39;40.80;100354.44;5091962;28;20417;-48
2021/07/27 03:47:22;;;;;;;27.48;9.35;;;;;;;27.28;38.15;100344.75;5090550;28;20156;-50
2021/07/27 03:49:48;;;;;;;22.80;8.77;;;;;;;28.25;36.37;100338.00;5091620;28;20057;-52
2021/07/27 03:52:13;;;;;;;16.70;8.68;;;;;;;29.07;34.23;100345.03;5091999;28;20458;-50
2021/07/27 03:54:39;;;;;;;23.00;8.85;;;;;;;29.80;31.99;100338.59;5091736;28;20369;-52
2021/07/27 03:57:05;;;;;;;22.42;8.35;;;;;;;30.48;31.24;100335.44;5091231;28;20048;-49
2021/07/27 03:59:31;;;;;;;16.08;7.70;;;;;;;31.12;29.65;100339.19;5073961;28;20028;-55
2021/07/27 04:01:56;;;;;;;19.75;7.65;;;;;;;31.72;28.83;100331.38;5071824;28;20051;-50
2021/07/27 04:04:22;;;;;;;22.10;7.78;;;;;;;32.34;27.79;100333.13;5071346;28;20464;-52
2021/07/27 04:06:48;;;;;;;20.50;8.05;;;;;;;33.00;26.86;100327.81;5071134;28;20028;-50
2021/07/27 04:09:14;;;;;;;18.85;7.80;;;;;;;33.43;26.35;100330.72;5071412;28;20044;-51
2021/07/27 04:11:40;;;;;;;21.65;8.30;;;;;;;33.97;24.96;100338.09;5071478;28;20024;-48
2021/07/27 04:14:06;;;;;;;21.70;8.52;;;;;;;34.66;24.08;100332.59;5070372;28;20107;-48
2021/07/27 04:16:31;;;;;;;22.25;7.90;;;;;;;35.21;23.00;100310.75;5070645;28;20024;-49
2021/07/27 04:18:57;;;;;;;19.75;7.55;;;;;;;35.75;22.24;100328.00;5071463;28;20036;-47
2021/07/27 04:21:25;;;;;;;23.02;8.00;;;;;;;36.31;21.21;100340.16;5069595;28;20028;-53
2021/07/27 04:23:51;;;;;;;19.80;7.50;;;;;;;37.06;20.11;100326.41;5069181;28;20497;-45
2021/07/27 04:26:16;;;;;;;16.42;7.82;;;;;;;38.01;19.29;100320.56;5068971;28;20115;-46
2021/07/27 04:28:42;;;;;;;24.50;7.93;;;;;;;38.89;18.15;100324.19;5069160;28;20093;-53
2021/07/27 04:31:08;;;;;;;21.60;8.73;;;;;;;39.32;17.80;100326.03;5069513;28;20096;-52
2021/07/27 04:33:33;;;;;;;20.33;8.93;;;;;;;39.78;16.95;100323.59;5070506;28;20040;-54
2021/07/27 04:35:59;;;;;;;20.92;8.48;;;;;;;40.15;16.34;100314.19;5069664;28;20125;-52
2021/07/27 04:38:24;;;;;;;19.65;7.78;;;;;;;40.40;15.84;100314.00;5070604;28;20379;-51
2021/07/27 04:40:53;;;;;;;14.68;7.47;;;;;;;40.69;16.02;100329.63;5070593;28;20106;-53
2021/07/27 04:43:19;;;;;;;25.10;7.03;;;;;;;41.02;15.01;100324.66;5070783;28;20044;-50
2021/07/27 04:45:44;;;;;;;20.17;6.65;;;;;;;41.48;14.44;100302.19;5070370;28;20037;-50
2021/07/27 04:48:10;;;;;;;11.70;4.97;;;;;;;41.71;13.68;100297.34;5070535;28;20525;-49
2021/07/27 04:50:36;;;;;;;12.43;5.03;;;;;;;42.29;13.16;100307.84;5070953;28;20028;-51
2021/07/27 04:53:09;;;;;;;11.30;5.03;;;;;;;43.09;12.95;100317.19;5070698;28;20028;-53
2021/07/27 04:55:34;;;;;;;8.40;5.40;;;;;;;43.31;11.98;100297.31;5070217;28;20029;-49
2021/07/27 04:58:03;;;;;;;8.45;5.43;;;;;;;43.81;11.86;100311.94;5070758;28;20035;-50
2021/07/27 05:00:29;;;;;;;9.75;5.57;;;;;;;44.10;11.44;100290.53;5070744;28;20058;-51
2021/07/27 05:02:58;;;;;;;9.27;5.10;;;;;;;44.71;10.96;100294.97;5069123;28;20056;-51
2021/07/27 05:05:23;;;;;;;8.95;5.60;;;;;;;45.18;10.62;100301.56;5070168;28;20094;-52
2021/07/27 05:07:49;;;;;;;9.70;5.70;;;;;;;45.54;10.31;100290.72;5070254;28;20459;-48
2021/07/27 05:10:16;;;;;;;7.38;5.40;;;;;;;46.14;10.72;100302.44;5070288;28;20111;-56
2021/07/27 05:12:42;;;;;;;8.30;3.83;;;;;;;46.12;8.94;100287.00;5070120;28;20063;-52
2021/07/27 05:15:08;;;;;;;5.80;4.45;;;;;;;46.06;9.22;100294.88;5070336;28;20128;-49
2021/07/27 05:17:33;;;;;;;9.05;4.65;;;;;;;46.09;9.33;100282.84;5070332;28;20468;-51
2021/07/27 05:19:59;;;;;;;7.15;5.00;;;;;;;46.40;8.99;100284.25;5070024;28;20444;-50
2021/07/27 05:22:25;;;;;;;7.72;4.85;;;;;;;46.52;9.36;100286.25;5070595;28;20028;-49
2021/07/27 05:24:51;;;;;;;8.70;4.93;;;;;;;46.50;9.39;100301.94;5070330;28;20025;-50
2021/07/27 05:27:18;;;;;;;8.35;4.22;;;;;;;46.96;8.74;100285.50;5069578;28;20070;-49
2021/07/27 05:29:44;;;;;;;5.72;3.50;;;;;;;47.39;7.91;100290.72;5070381;28;20044;-48
2021/07/27 05:32:10;;;;;;;5.47;3.90;;;;;;;47.58;7.82;100293.66;5070388;28;20032;-52
2021/07/27 05:34:35;;;;;;;4.57;3.45;;;;;;;47.85;7.07;100274.09;5069585;28;20492;-48
2021/07/27 05:37:00;;;;;;;3.70;3.13;;;;;;;47.95;6.80;100266.19;5070417;28;20090;-58
2021/07/27 05:39:26;;;;;;;4.93;2.90;;;;;;;48.13;6.39;100270.31;5070230;28;20142;-58
2021/07/27 05:41:51;;;;;;;3.53;2.63;;;;;;;48.91;6.34;100288.63;5069614;28;20112;-56
2021/07/27 05:44:17;;;;;;;4.30;3.10;;;;;;;49.50;6.10;100273.47;5070161;28;20056;-54
2021/07/27 05:46:43;;;;;;;3.42;2.97;;;;;;;49.70;5.84;100268.56;5068816;28;20032;-54
2021/07/27 05:49:10;;;;;;;5.22;3.22;;;;;;;49.83;6.22;100274.84;5070327;28;20338;-51
2021/07/27 05:51:35;;;;;;;5.47;3.13;;;;;;;49.97;6.17;100286.47;5070017;28;20024;-54
2021/07/27 05:54:01;;;;;;;3.40;3.10;;;;;;;50.23;5.61;100279.13;5071841;28;20036;-55
2021/07/27 05:56:26;;;;;;;4.22;2.80;;;;;;;50.21;5.71;100283.56;5074007;28;20036;-56
2021/07/27 05:58:53;;;;;;;2.58;2.30;;;;;;;50.48;5.33;100292.09;5072512;28;20035;-54
2021/07/27 06:01:18;;;;;;;3.40;3.10;;;;;;;50.58;5.33;100257.19;5073227;28;20457;-56
2021/07/27 06:03:44;;;;;;;3.17;2.80;;;;;;;50.91;5.24;100280.41;5071858;28;20086;-56
2021/07/27 06:06:09;;;;;;;3.35;2.50;;;;;;;50.91;5.19;100269.00;5072733;28;20040;-52
2021/07/27 06:08:35;;;;;;;3.63;2.58;;;;;;;51.18;4.95;100281.13;5073212;28;20032;-54
2021/07/27 06:11:04;;;;;;;3.33;2.97;;;;;;;51.62;4.97;100293.75;5073355;28;20024;-54
2021/07/27 06:13:30;;;;;;;3.55;3.25;;;;;;;51.61;4.75;100274.16;5066420;28;20185;-54
2021/07/27 06:15:55;;;;;;;4.00;3.33;;;;;;;51.79;4.71;100278.00;5068904;28;20123;-57
2021/07/27 06:18:21;;;;;;;4.03;3.10;;;;;;;51.97;4.28;100277.31;5071077;28;20340;-54
2021/07/27 06:20:46;;;;;;;3.25;2.80;;;;;;;52.19;4.38;100271.75;5072913;28;20046;-55
2021/07/27 06:23:12;;;;;;;3.08;2.75;;;;;;;52.49;3.82;100259.28;5073100;28;20034;-56
2021/07/27 06:25:37;;;;;;;4.60;3.35;;;;;;;52.90;4.06;100283.91;5073372;28;20525;-52
2021/07/27 06:28:05;;;;;;;4.10;3.35;;;;;;;53.10;3.80;100279.50;5071327;28;20020;-58
2021/07/27 06:30:30;;;;;;;5.45;3.70;;;;;;;53.39;3.74;100281.59;5060225;28;20048;-55
2021/07/27 06:32:57;;;;;;;4.43;3.13;;;;;;;53.46;3.82;100280.78;5050731;28;20412;-56
2021/07/27 06:35:23;;;;;;;4.43;3.00;;;;;;;53.63;3.53;100279.94;5057691;28;20052;-57
2021/07/27 06:37:49;;;;;;;3.97;3.47;;;;;;;53.93;3.59;100284.44;5072893;28;20025;-57
2021/07/27 06:40:14;;;;;;;4.22;3.90;;;;;;;54.19;3.12;100284.38;5072538;28;20032;-56
2021/07/27 06:42:40;;;;;;;4.03;3.63;;;;;;;54.22;3.15;100286.41;5071403;28;20047;-56
2021/07/27 06:45:06;;;;;;;5.93;4.35;;;;;;;54.34;2.90;100297.41;5073212;28;20036;-59
2021/07/27 06:47:31;;;;;;;5.47;4.53;;;;;;;54.02;3.32;100271.72;5072713;28;20033;-58
2021/07/27 06:49:57;;;;;;;4.27;3.90;;;;;;;54.88;2.56;100270.59;5070909;28;20036;-58
2021/07/27 06:52:22;;;;;;;5.00;4.43;;;;;;;55.78;2.23;100271.97;5064686;28;20292;-55
2021/07/27 06:54:48;;;;;;;4.40;4.00;;;;;;;56.11;2.05;100276.53;5060971;28;20272;-57
2021/07/27 06:57:13;;;;;;;5.05;4.00;;;;;;;56.68;1.93;100277.06;5050402;28;20487;-54
2021/07/27 06:59:38;;;;;;;4.30;3.90;;;;;;;57.25;1.55;100278.28;5068489;28;20028;-56
2021/07/27 07:02:04;;;;;;;4.55;4.22;;;;;;;57.45;1.83;100274.69;5072776;28;20736;-57
2021/07/27 07:04:29;;;;;;;5.10;4.70;;;;;;;57.28;1.69;100285.25;5070797;28;20116;-59
2021/07/27 07:06:55;;;;;;;4.90;4.60;;;;;;;56.81;1.83;100277.31;5072091;28;20432;-54
2021/07/27 07:09:20;;;;;;;5.60;5.10;;;;;;;56.75;1.96;100269.16;5072090;28;20600;-58
2021/07/27 07:11:46;;;;;;;5.33;4.93;;;;;;;56.71;2.10;100273.38;5059952;28;20407;-54
2021/07/27 07:14:11;;;;;;;6.23;4.63;;;;;;;56.55;2.24;100266.16;5051846;28;20286;-56
2021/07/27 07:16:36;;;;;;;8.20;5.22;;;;;;;56.22;2.40;100254.25;5052242;28;20258;-58
2021/07/27 07:19:02;;;;;;;7.63;5.07;;;;;;;55.34;2.47;100256.31;5052171;28;20039;-58
2021/07/27 07:21:27;;;;;;;7.25;4.95;;;;;;;55.14;2.94;100256.91;5052038;28;20773;-58
2021/07/27 07:23:53;;;;;;;5.80;5.30;;;;;;;55.82;2.24;100251.00;5051714;28;20025;-56
2021/07/27 07:26:18;;;;;;;7.13;4.80;;;;;;;56.17;2.05;100246.91;5052134;28;20029;-57
2021/07/27 07:28:44;;;;;;;6.30;5.00;;;;;;;56.28;2.24;100258.28;5051758;28;20311;-57
2021/07/27 07:31:16;;;;;;;5.20;4.70;;;;;;;56.50;2.01;100260.88;5051617;28;20055;-57
2021/07/27 07:33:42;;;;;;;5.70;4.97;;;;;;;56.50;1.67;100229.28;5052302;28;20282;-58
2021/07/27 07:36:12;;;;;;;5.65;5.13;;;;;;;57.10;1.49;100260.44;5052000;28;20037;-56
2021/07/27 07:38:38;;;;;;;5.80;5.10;;;;;;;57.06;1.61;100265.44;5051858;28;20032;-54
2021/07/27 07:41:09;;;;;;;8.40;4.90;;;;;;;57.19;1.82;100269.34;5051759;28;20025;-55
2021/07/27 07:43:35;;;;;;;6.22;4.93;;;;;;;56.61;1.75;100247.16;5052107;28;20041;-56
2021/07/27 07:46:01;;;;;;;5.95;5.38;;;;;;;57.10;1.79;100243.19;5051221;28;20099;-56
2021/07/27 07:48:26;;;;;;;6.47;5.85;;;;;;;57.65;1.64;100245.97;5064424;28;20504;-57
2021/07/27 07:50:52;;;;;;;7.20;6.63;;;;;;;57.21;1.58;100246.69;5059425;28;20416;-56
2021/07/27 07:53:17;;;;;;;7.38;6.65;;;;;;;57.28;1.50;100253.59;5050278;28;20075;-55
2021/07/27 07:55:43;;;;;;;8.10;5.35;;;;;;;57.29;1.39;100247.41;5050908;28;20025;-58
2021/07/27 07:58:08;;;;;;;8.47;6.03;;;;;;;57.47;1.83;100246.25;5033748;28;20029;-55
2021/07/27 08:00:34;;;;;;;7.57;6.97;;;;;;;57.59;1.59;100239.91;5051480;28;20265;-58
2021/07/27 08:03:03;;;;;;;6.63;6.03;;;;;;;57.90;1.26;100254.13;5051785;28;20021;-57
2021/07/27 08:05:29;;;;;;;7.80;7.15;;;;;;;56.24;1.79;100243.16;5051249;28;20032;-54
2021/07/27 08:07:54;;;;;;;7.07;5.20;;;;;;;55.33;2.19;100241.16;5051091;28;20036;-56
2021/07/27 08:10:20;;;;;;;6.95;6.20;;;;;;;54.07;2.63;100232.06;5057966;28;20056;-56
2021/07/27 08:12:47;;;;;;;6.75;4.70;;;;;;;53.38;3.53;100219.88;5059868;28;20036;-56
2021/07/27 08:15:14;;;;;;;18.70;5.38;;;;;;;52.73;3.62;100237.75;5082946;28;20039;-49
2021/07/27 08:17:39;;;;;;;5.72;4.07;;;;;;;51.97;3.87;100225.94;5072611;28;20033;-54
2021/07/27 08:20:06;;;;;;;4.97;4.18;;;;;;;51.76;3.96;100241.72;5069843;28;20031;-56
2021/07/27 08:22:31;;;;;;;4.15;3.65;;;;;;;51.05;4.47;100211.34;5068234;28;20036;-53
2021/07/27 08:24:56;;;;;;;8.18;3.47;;;;;;;49.47;5.27;100232.41;5062537;28;20035;-54
2021/07/27 08:27:22;;;;;;;5.97;3.50;;;;;;;47.04;6.24;100218.53;5070928;28;20123;-57
2021/07/27 08:29:48;;;;;;;6.65;2.90;;;;;;;44.56;7.96;100216.56;5070879;28;20068;-56
2021/07/27 08:32:13;;;;;;;3.78;3.15;;;;;;;42.36;8.80;100218.13;5071088;28;20033;-50
2021/07/27 08:34:43;;;;;;;3.67;3.00;;;;;;;40.33;11.00;100239.50;5070491;28;20059;-53
2021/07/27 08:37:09;;;;;;;4.82;2.97;;;;;;;38.70;12.08;100215.91;5060028;28;20075;-52
2021/07/27 08:39:35;;;;;;;5.82;3.03;;;;;;;37.59;13.43;100210.34;5049423;28;20482;-54
2021/07/27 08:42:03;;;;;;;6.03;3.35;;;;;;;36.73;14.05;100226.44;5048878;28;20033;-51
2021/07/27 08:44:30;;;;;;;6.03;2.85;;;;;;;35.71;14.91;100229.41;5050198;28;20043;-48
2021/07/27 08:46:58;;;;;;;6.30;3.10;;;;;;;34.98;15.54;100231.41;5049579;28;20033;-50
2021/07/27 08:49:23;;;;;;;4.63;2.88;;;;;;;34.52;16.42;100225.81;5049067;28;20048;-57
2021/07/27 08:51:49;;;;;;;4.13;2.92;;;;;;;34.08;16.66;100216.75;5049685;28;20408;-53
2021/07/27 08:54:16;;;;;;;5.47;2.40;;;;;;;33.88;16.76;100221.09;5050145;28;20447;-52
2021/07/27 08:56:48;;;;;;;6.90;2.70;;;;;;;33.79;17.22;100222.72;5086009;28;20046;-55
2021/07/27 08:59:15;;;;;;;3.13;2.53;;;;;;;33.47;17.73;100213.38;5089442;28;20032;-55
2021/07/27 09:01:41;;;;;;;5.80;2.53;;;;;;;33.35;17.71;100219.09;5090720;28;20441;-52
2021/07/27 09:04:07;;;;;;;4.28;2.83;;;;;;;33.06;18.37;100213.03;5088817;28;20025;-51
2021/07/27 09:06:32;;;;;;;2.88;2.55;;;;;;;32.76;18.09;100212.47;5087341;28;20035;-55
2021/07/27 09:09:08;;;;;;;5.72;2.45;;;;;;;32.66;18.04;100220.72;5090663;28;20020;-53
2021/07/27 09:11:47;;;;;;;5.40;2.70;;;;;;;32.24;17.74;100188.09;5090515;28;20036;-56
2021/07/27 09:14:20;;;;;;;6.03;2.70;;;;;;;32.00;19.61;100221.59;5091206;28;20119;-54
2021/07/27 09:16:48;;;;;;;3.83;2.42;;;;;;;31.77;18.80;100227.13;5090276;28;20364;-53
2021/07/27 09:19:14;;;;;;;5.15;2.63;;;;;;;31.40;18.89;100169.56;5090658;28;20396;-52
2021/07/27 09:21:43;;;;;;;5.15;2.47;;;;;;;31.81;19.46;100223.84;5090789;28;20074;-56
2021/07/27 09:24:09;;;;;;;3.50;2.30;;;;;;;31.77;19.04;100190.28;5090662;28;20028;-54
2021/07/27 09:26:36;;;;;;;5.95;2.50;;;;;;;31.85;18.93;100219.47;5090231;28;20060;-52
2021/07/27 09:29:04;;;;;;;4.55;2.80;;;;;;;31.77;18.96;100223.50;5093868;28;20020;-55
2021/07/27 09:31:29;;;;;;;3.95;2.63;;;;;;;31.69;19.38;100210.09;5094350;28;20028;-55
2021/07/27 09:33:55;;;;;;;5.78;2.72;;;;;;;31.65;19.57;100218.91;5094109;28;20051;-52
2021/07/27 09:36:27;;;;;;;6.50;2.55;;;;;;;31.65;20.03;100216.16;5094005;28;20052;-53
2021/07/27 09:39:04;;;;;;;4.50;2.78;;;;;;;31.83;19.43;100213.34;5080456;28;20098;-56
2021/07/27 09:41:30;;;;;;;5.65;2.78;;;;;;;31.83;19.97;100203.13;5073657;28;20056;-54
2021/07/27 09:43:59;;;;;;;3.97;2.55;;;;;;;32.03;19.44;100204.47;5060730;28;20464;-57
2021/07/27 09:46:25;;;;;;;6.90;2.90;;;;;;;32.07;19.46;100189.84;5072158;28;20090;-56
2021/07/27 09:48:54;;;;;;;3.97;2.58;;;;;;;32.28;18.95;100189.22;5068973;28;20025;-53
2021/07/27 09:51:20;;;;;;;5.45;3.17;;;;;;;32.24;18.65;100182.53;5053442;28;20110;-54
2021/07/27 09:53:47;;;;;;;7.55;2.83;;;;;;;32.21;19.32;100181.16;5053604;28;20410;-54
2021/07/27 09:56:12;;;;;;;5.28;2.90;;;;;;;32.20;19.03;100182.25;5053826;28;20083;-51
2021/07/27 09:58:39;;;;;;;3.55;2.78;;;;;;;32.22;18.85;100180.88;5053906;28;20056;-56
2021/07/27 10:01:09;;;;;;;4.50;2.70;;;;;;;32.29;18.45;100193.69;5058855;28;20472;-57
2021/07/27 10:03:43;;;;;;;4.35;2.88;;;;;;;32.15;18.50;100183.03;5073543;28;20464;-55
2021/07/27 10:06:09;;;;;;;3.10;2.60;;;;;;;31.99;18.82;100175.63;5073955;28;20461;-58
2021/07/27 10:08:36;;;;;;;4.38;2.58;;;;;;;31.93;18.63;100171.94;5073710;28;20020;-52
2021/07/27 10:11:09;;;;;;;3.63;2.65;;;;;;;31.98;18.71;100177.56;5073300;28;20035;-53
2021/07/27 10:14:03;;;;;;;6.95;3.15;;;;;;;32.06;18.04;100173.47;5079655;22;20096;-53
2021/07/27 10:16:29;;;;;;;6.28;3.00;;;;;;;31.61;18.88;100169.84;5069944;28;20059;-51
2021/07/27 10:18:54;;;;;;;3.92;2.78;;;;;;;31.61;19.13;100167.09;5073736;28;20040;-51
2021/07/27 10:21:26;;;;;;;5.57;2.80;;;;;;;31.64;19.12;100167.41;5073221;28;20024;-51
2021/07/27 10:23:57;;;;;;;5.32;2.70;;;;;;;31.77;19.44;100179.22;5073399;28;20066;-54
2021/07/27 10:26:33;;;;;;;5.50;2.72;;;;;;;31.71;19.31;100175.53;5069992;28;20035;-55
2021/07/27 10:29:00;;;;;;;4.32;2.90;;;;;;;31.54;19.63;100181.09;5058773;28;20116;-54
2021/07/27 10:31:36;;;;;;;4.60;2.60;;;;;;;31.60;19.57;100155.19;5072698;28;20473;-54
2021/07/27 10:34:04;;;;;;;4.13;2.60;;;;;;;31.73;19.96;100167.81;5065752;28;20075;-51
2021/07/27 10:36:33;;;;;;;3.10;2.40;;;;;;;31.78;19.17;100165.13;5055690;28;20446;-54
2021/07/27 10:39:18;;;;;;;3.30;2.30;;;;;;;31.81;19.34;100160.19;5072656;28;20032;-55
2021/07/27 10:41:50;;;;;;;5.65;3.00;;;;;;;31.63;19.46;100153.81;5072212;28;20072;-54
2021/07/27 10:44:23;;;;;;;4.45;2.88;;;;;;;31.11;20.26;100102.44;5057495;28;20067;-52
2021/07/27 10:46:51;;;;;;;5.15;2.95;;;;;;;31.28;19.58;100152.25;5064030;28;20051;-51
2021/07/27 10:49:22;;;;;;;4.15;2.75;;;;;;;31.17;19.67;100143.75;5072353;28;20541;-52
2021/07/27 10:51:50;;;;;;;3.28;2.67;;;;;;;30.95;20.42;100135.41;5052876;28;20121;-53
2021/07/27 10:54:17;;;;;;;5.80;2.63;;;;;;;31.07;20.37;100144.44;5052751;28;20490;-53
2021/07/27 10:57:04;;;;;;;6.10;2.90;;;;;;;31.39;20.15;100150.47;5053037;28;20040;-59
2021/07/27 10:59:32;;;;;;;4.60;2.90;;;;;;;31.39;19.60;100131.09;5052686;28;20021;-54
2021/07/27 11:02:01;;;;;;;6.50;2.70;;;;;;;31.60;19.20;100119.22;5060525;28;20021;-59
2021/07/27 11:04:32;;;;;;;3.75;3.00;;;;;;;31.74;18.97;100097.53;5067362;28;20135;-54
2021/07/27 11:07:11;;;;;;;4.95;2.78;;;;;;;32.20;18.91;100122.13;5069043;28;20024;-55
2021/07/27 11:09:45;;;;;;;6.13;3.08;;;;;;;32.40;19.28;100117.94;5073178;28;20038;-53
2021/07/27 11:12:11;;;;;;;5.05;3.35;;;;;;;32.42;19.35;100107.41;5052146;28;20548;-54
2021/07/27 11:14:36;;;;;;;5.85;3.00;;;;;;;32.52;19.57;100111.38;5052738;28;20191;-51
2021/07/27 11:17:02;;;;;;;7.13;3.10;;;;;;;32.70;18.93;100105.44;5072333;28;20040;-51
2021/07/27 11:19:29;;;;;;;4.30;2.95;;;;;;;32.88;18.76;100114.47;5072086;28;20130;-55
2021/07/27 11:21:56;;;;;;;5.47;3.28;;;;;;;32.95;18.53;100117.84;5072726;28;20437;-52
2021/07/27 11:24:23;;;;;;;7.90;3.40;;;;;;;32.99;18.60;100121.75;5092623;28;20062;-53
2021/07/27 11:26:50;;;;;;;6.68;3.53;;;;;;;33.01;18.36;100108.44;5092749;28;20032;-55
2021/07/27 11:29:18;;;;;;;5.70;2.90;;;;;;;33.01;18.71;100094.56;5074158;28;20442;-55
2021/07/27 11:31:48;;;;;;;6.80;2.97;;;;;;;33.04;19.08;100096.84;5091993;28;20360;-53
2021/07/27 11:34:31;;;;;;;5.05;2.85;;;;;;;33.13;18.82;100093.53;5092215;28;20055;-54
2021/07/27 11:36:58;;;;;;;6.68;3.00;;;;;;;32.89;18.93;100099.50;5091947;28;20024;-53
2021/07/27 11:39:24;;;;;;;5.22;2.70;;;;;;;32.70;19.41;100096.28;5092176;28;20451;-50
2021/07/27 11:42:00;;;;;;;7.15;2.88;;;;;;;32.68;18.85;100095.72;5092320;28;20028;-51
2021/07/27 11:44:26;;;;;;;4.72;2.67;;;;;;;32.54;19.28;100082.28;5091948;28;20040;-49
2021/07/27 11:46:52;;;;;;;4.47;2.80;;;;;;;32.48;19.15;100089.72;5092200;28;20494;-51
2021/07/27 11:49:17;;;;;;;6.93;3.00;;;;;;;32.41;19.02;100086.34;5091876;28;20081;-55